sensor_id;sensor_type;location;lat;lon;timestamp;temperature;humidity
21487;DHT22;10905;50.822;4.336;2022-07-06T00:01:02;17.10;99.90
21487;DHT22;10905;50.822;4.336;2022-07-06T00:03:27;17.10;99.90
21487;DHT22;10905;50.822;4.336;2022-07-06T00:05:53;17.10;99.90
21487;DHT22;10905;50.822;4.336;2022-07-06T00:08:18;17.20;99.90
21487;DHT22;10905;50.822;4.336;2022-07-06T00:10:44;17.20;99.90
21487;DHT22;10905;50.822;4.336;2022-07-06T00:13:09;17.10;99.90
21487;DHT22;10905;50.822;4.336;2022-07-06T00:15:35;17.00;99.90
21487;DHT22;10905;50.822;4.336;2022-07-06T00:18:00;17.00;99.90
21487;DHT22;10905;50.822;4.336;2022-07-06T00:20:26;17.10;99.90
21487;DHT22;10905;50.822;4.336;2022-07-06T00:22:51;16.90;99.90
21487;DHT22;10905;50.822;4.336;2022-07-06T00:25:17;17.00;99.90
21487;DHT22;10905;50.822;4.336;2022-07-06T00:27:42;17.10;99.90
21487;DHT22;10905;50.822;4.336;2022-07-06T00:30:08;17.10;99.90
21487;DHT22;10905;50.822;4.336;2022-07-06T00:32:34;17.10;99.90
21487;DHT22;10905;50.822;4.336;2022-07-06T00:34:59;17.10;99.90
21487;DHT22;10905;50.822;4.336;2022-07-06T00:37:25;17.00;99.90
21487;DHT22;10905;50.822;4.336;2022-07-06T00:39:50;17.00;99.90
21487;DHT22;10905;50.822;4.336;2022-07-06T00:42:16;17.00;99.90
21487;DHT22;10905;50.822;4.336;2022-07-06T00:44:41;17.00;99.90
21487;DHT22;10905;50.822;4.336;2022-07-06T00:47:07;17.00;99.90
21487;DHT22;10905;50.822;4.336;2022-07-06T00:49:33;17.00;99.90
21487;DHT22;10905;50.822;4.336;2022-07-06T00:52:17;17.00;99.90
21487;DHT22;10905;50.822;4.336;2022-07-06T00:54:43;16.90;99.90
21487;DHT22;10905;50.822;4.336;2022-07-06T00:57:08;16.90;99.90
21487;DHT22;10905;50.822;4.336;2022-07-06T00:59:34;16.90;99.90
21487;DHT22;10905;50.822;4.336;2022-07-06T01:02:00;17.00;99.90
21487;DHT22;10905;50.822;4.336;2022-07-06T01:04:25;16.90;99.90
21487;DHT22;10905;50.822;4.336;2022-07-06T01:06:51;16.90;99.90
21487;DHT22;10905;50.822;4.336;2022-07-06T01:09:17;16.90;99.90
21487;DHT22;10905;50.822;4.336;2022-07-06T01:11:43;16.80;99.90
21487;DHT22;10905;50.822;4.336;2022-07-06T01:14:08;16.70;99.90
21487;DHT22;10905;50.822;4.336;2022-07-06T01:16:34;16.70;99.90
21487;DHT22;10905;50.822;4.336;2022-07-06T01:18:59;16.70;99.90
21487;DHT22;10905;50.822;4.336;2022-07-06T01:21:25;16.60;99.90
21487;DHT22;10905;50.822;4.336;2022-07-06T01:23:50;16.60;99.90
21487;DHT22;10905;50.822;4.336;2022-07-06T01:26:18;16.60;99.90
21487;DHT22;10905;50.822;4.336;2022-07-06T01:28:44;16.60;99.90
21487;DHT22;10905;50.822;4.336;2022-07-06T01:31:17;16.50;99.90
21487;DHT22;10905;50.822;4.336;2022-07-06T01:33:43;16.40;99.90
21487;DHT22;10905;50.822;4.336;2022-07-06T01:36:09;16.40;99.90
21487;DHT22;10905;50.822;4.336;2022-07-06T01:38:45;16.40;99.90
21487;DHT22;10905;50.822;4.336;2022-07-06T01:41:11;16.40;99.90
21487;DHT22;10905;50.822;4.336;2022-07-06T01:43:37;16.40;99.90
21487;DHT22;10905;50.822;4.336;2022-07-06T01:46:02;16.40;99.90
21487;DHT22;10905;50.822;4.336;2022-07-06T01:48:28;16.20;99.90
21487;DHT22;10905;50.822;4.336;2022-07-06T01:50:53;16.20;99.90
21487;DHT22;10905;50.822;4.336;2022-07-06T01:53:19;16.20;99.90
21487;DHT22;10905;50.822;4.336;2022-07-06T01:55:44;16.20;99.90
21487;DHT22;10905;50.822;4.336;2022-07-06T01:58:10;16.10;99.90
21487;DHT22;10905;50.822;4.336;2022-07-06T02:00:35;16.20;99.90
21487;DHT22;10905;50.822;4.336;2022-07-06T02:03:01;16.00;99.90
21487;DHT22;10905;50.822;4.336;2022-07-06T02:05:26;15.80;99.90
21487;DHT22;10905;50.822;4.336;2022-07-06T02:07:52;15.90;99.90
21487;DHT22;10905;50.822;4.336;2022-07-06T02:10:17;15.90;99.90
21487;DHT22;10905;50.822;4.336;2022-07-06T02:12:43;15.90;99.90
21487;DHT22;10905;50.822;4.336;2022-07-06T02:15:08;15.90;99.90
21487;DHT22;10905;50.822;4.336;2022-07-06T02:17:34;15.90;99.90
21487;DHT22;10905;50.822;4.336;2022-07-06T02:20:00;15.90;99.90
21487;DHT22;10905;50.822;4.336;2022-07-06T02:22:25;15.80;99.90
21487;DHT22;10905;50.822;4.336;2022-07-06T02:24:51;15.60;99.90
21487;DHT22;10905;50.822;4.336;2022-07-06T02:27:16;15.30;99.90
21487;DHT22;10905;50.822;4.336;2022-07-06T02:29:42;15.30;99.90
21487;DHT22;10905;50.822;4.336;2022-07-06T02:32:07;15.30;99.90
21487;DHT22;10905;50.822;4.336;2022-07-06T02:34:33;15.40;99.90
21487;DHT22;10905;50.822;4.336;2022-07-06T02:36:58;15.60;99.90
21487;DHT22;10905;50.822;4.336;2022-07-06T02:39:25;15.70;99.90
21487;DHT22;10905;50.822;4.336;2022-07-06T02:41:51;15.80;99.90
21487;DHT22;10905;50.822;4.336;2022-07-06T02:44:16;15.80;99.90
21487;DHT22;10905;50.822;4.336;2022-07-06T02:46:42;15.60;99.90
21487;DHT22;10905;50.822;4.336;2022-07-06T02:49:07;15.40;99.90
21487;DHT22;10905;50.822;4.336;2022-07-06T02:51:33;15.30;99.90
21487;DHT22;10905;50.822;4.336;2022-07-06T02:53:58;15.40;99.90
21487;DHT22;10905;50.822;4.336;2022-07-06T02:56:24;15.50;99.90
21487;DHT22;10905;50.822;4.336;2022-07-06T02:58:49;15.40;99.90
21487;DHT22;10905;50.822;4.336;2022-07-06T03:01:15;15.50;99.90
21487;DHT22;10905;50.822;4.336;2022-07-06T03:03:40;15.40;99.90
21487;DHT22;10905;50.822;4.336;2022-07-06T03:06:06;15.30;99.90
21487;DHT22;10905;50.822;4.336;2022-07-06T03:08:31;15.10;99.90
21487;DHT22;10905;50.822;4.336;2022-07-06T03:10:57;15.00;99.90
21487;DHT22;10905;50.822;4.336;2022-07-06T03:13:22;15.10;99.90
21487;DHT22;10905;50.822;4.336;2022-07-06T03:15:48;15.10;99.90
21487;DHT22;10905;50.822;4.336;2022-07-06T03:18:13;15.00;99.90
21487;DHT22;10905;50.822;4.336;2022-07-06T03:20:39;15.10;99.90
21487;DHT22;10905;50.822;4.336;2022-07-06T03:23:04;14.90;99.90
21487;DHT22;10905;50.822;4.336;2022-07-06T03:25:30;15.00;99.90
21487;DHT22;10905;50.822;4.336;2022-07-06T03:27:55;15.10;99.90
21487;DHT22;10905;50.822;4.336;2022-07-06T03:30:21;15.20;99.90
21487;DHT22;10905;50.822;4.336;2022-07-06T03:32:46;15.10;99.90
21487;DHT22;10905;50.822;4.336;2022-07-06T03:35:12;14.90;99.90
21487;DHT22;10905;50.822;4.336;2022-07-06T03:37:37;14.90;99.90
21487;DHT22;10905;50.822;4.336;2022-07-06T03:40:03;15.00;99.90
21487;DHT22;10905;50.822;4.336;2022-07-06T03:42:28;14.80;99.90
21487;DHT22;10905;50.822;4.336;2022-07-06T03:44:54;14.90;99.90
21487;DHT22;10905;50.822;4.336;2022-07-06T03:47:19;14.80;99.90
21487;DHT22;10905;50.822;4.336;2022-07-06T03:49:45;14.70;99.90
21487;DHT22;10905;50.822;4.336;2022-07-06T03:52:10;14.60;99.90
21487;DHT22;10905;50.822;4.336;2022-07-06T03:54:36;14.60;99.90
21487;DHT22;10905;50.822;4.336;2022-07-06T03:57:01;14.80;99.90
21487;DHT22;10905;50.822;4.336;2022-07-06T03:59:27;15.00;99.90
21487;DHT22;10905;50.822;4.336;2022-07-06T04:01:52;14.80;99.90
21487;DHT22;10905;50.822;4.336;2022-07-06T04:04:18;15.00;99.90
21487;DHT22;10905;50.822;4.336;2022-07-06T04:06:43;15.10;99.90
21487;DHT22;10905;50.822;4.336;2022-07-06T04:09:09;14.90;99.90
21487;DHT22;10905;50.822;4.336;2022-07-06T04:11:34;14.90;99.90
21487;DHT22;10905;50.822;4.336;2022-07-06T04:14:00;15.00;99.90
21487;DHT22;10905;50.822;4.336;2022-07-06T04:16:26;15.00;99.90
21487;DHT22;10905;50.822;4.336;2022-07-06T04:18:51;15.20;99.90
21487;DHT22;10905;50.822;4.336;2022-07-06T04:21:17;15.30;99.90
21487;DHT22;10905;50.822;4.336;2022-07-06T04:23:42;15.40;99.90
21487;DHT22;10905;50.822;4.336;2022-07-06T04:26:08;15.30;99.90
21487;DHT22;10905;50.822;4.336;2022-07-06T04:28:33;15.40;99.90
21487;DHT22;10905;50.822;4.336;2022-07-06T04:30:59;15.50;99.90
21487;DHT22;10905;50.822;4.336;2022-07-06T04:33:24;15.50;99.90
21487;DHT22;10905;50.822;4.336;2022-07-06T04:35:50;15.40;99.90
21487;DHT22;10905;50.822;4.336;2022-07-06T04:38:15;15.30;99.90
21487;DHT22;10905;50.822;4.336;2022-07-06T04:40:41;15.30;99.90
21487;DHT22;10905;50.822;4.336;2022-07-06T04:43:06;15.20;99.90
21487;DHT22;10905;50.822;4.336;2022-07-06T04:45:32;15.10;99.90
21487;DHT22;10905;50.822;4.336;2022-07-06T04:47:58;15.00;99.90
21487;DHT22;10905;50.822;4.336;2022-07-06T04:50:25;15.10;99.90
21487;DHT22;10905;50.822;4.336;2022-07-06T04:52:51;15.10;99.90
21487;DHT22;10905;50.822;4.336;2022-07-06T04:55:16;15.10;99.90
21487;DHT22;10905;50.822;4.336;2022-07-06T04:57:42;14.90;99.90
21487;DHT22;10905;50.822;4.336;2022-07-06T05:00:08;15.00;99.90
21487;DHT22;10905;50.822;4.336;2022-07-06T05:02:33;15.00;99.90
21487;DHT22;10905;50.822;4.336;2022-07-06T05:04:59;15.00;99.90
21487;DHT22;10905;50.822;4.336;2022-07-06T05:07:24;15.00;99.90
21487;DHT22;10905;50.822;4.336;2022-07-06T05:09:54;15.00;99.90
21487;DHT22;10905;50.822;4.336;2022-07-06T05:12:20;15.10;99.90
21487;DHT22;10905;50.822;4.336;2022-07-06T05:14:45;15.10;99.90
21487;DHT22;10905;50.822;4.336;2022-07-06T05:17:11;15.10;99.90
21487;DHT22;10905;50.822;4.336;2022-07-06T05:19:36;15.20;99.90
21487;DHT22;10905;50.822;4.336;2022-07-06T05:22:02;15.20;99.90
21487;DHT22;10905;50.822;4.336;2022-07-06T05:24:27;15.10;99.90
21487;DHT22;10905;50.822;4.336;2022-07-06T05:26:53;15.20;99.90
21487;DHT22;10905;50.822;4.336;2022-07-06T05:29:18;15.20;99.90
21487;DHT22;10905;50.822;4.336;2022-07-06T05:31:44;15.40;99.90
21487;DHT22;10905;50.822;4.336;2022-07-06T05:34:09;15.40;99.90
21487;DHT22;10905;50.822;4.336;2022-07-06T05:36:35;15.60;99.90
21487;DHT22;10905;50.822;4.336;2022-07-06T05:39:00;15.80;99.90
21487;DHT22;10905;50.822;4.336;2022-07-06T05:41:26;16.00;99.90
21487;DHT22;10905;50.822;4.336;2022-07-06T05:43:51;16.10;99.90
21487;DHT22;10905;50.822;4.336;2022-07-06T05:46:17;16.10;99.90
21487;DHT22;10905;50.822;4.336;2022-07-06T05:48:42;16.10;99.90
21487;DHT22;10905;50.822;4.336;2022-07-06T05:51:27;16.00;99.90
21487;DHT22;10905;50.822;4.336;2022-07-06T05:53:52;16.00;99.90
21487;DHT22;10905;50.822;4.336;2022-07-06T05:56:18;16.00;99.90
21487;DHT22;10905;50.822;4.336;2022-07-06T05:58:43;16.10;99.90
21487;DHT22;10905;50.822;4.336;2022-07-06T06:01:08;16.30;99.90
21487;DHT22;10905;50.822;4.336;2022-07-06T06:03:35;16.30;99.90
21487;DHT22;10905;50.822;4.336;2022-07-06T06:06:00;16.40;99.90
21487;DHT22;10905;50.822;4.336;2022-07-06T06:08:26;16.60;99.90
21487;DHT22;10905;50.822;4.336;2022-07-06T06:10:52;16.70;99.90
21487;DHT22;10905;50.822;4.336;2022-07-06T06:13:18;16.80;99.90
21487;DHT22;10905;50.822;4.336;2022-07-06T06:15:43;17.00;99.90
21487;DHT22;10905;50.822;4.336;2022-07-06T06:18:09;17.20;99.90
21487;DHT22;10905;50.822;4.336;2022-07-06T06:20:34;17.30;99.90
21487;DHT22;10905;50.822;4.336;2022-07-06T06:23:00;17.60;99.90
21487;DHT22;10905;50.822;4.336;2022-07-06T06:27:54;17.70;99.90
21487;DHT22;10905;50.822;4.336;2022-07-06T06:30:19;17.70;99.90
21487;DHT22;10905;50.822;4.336;2022-07-06T06:32:45;17.70;99.90
21487;DHT22;10905;50.822;4.336;2022-07-06T06:35:11;17.80;99.90
21487;DHT22;10905;50.822;4.336;2022-07-06T06:37:36;17.80;99.90
21487;DHT22;10905;50.822;4.336;2022-07-06T06:40:02;17.90;99.90
21487;DHT22;10905;50.822;4.336;2022-07-06T06:42:28;18.10;99.90
21487;DHT22;10905;50.822;4.336;2022-07-06T06:44:54;18.30;99.90
21487;DHT22;10905;50.822;4.336;2022-07-06T06:47:19;18.50;99.90
21487;DHT22;10905;50.822;4.336;2022-07-06T06:49:45;18.60;99.90
21487;DHT22;10905;50.822;4.336;2022-07-06T06:52:11;18.50;99.90
21487;DHT22;10905;50.822;4.336;2022-07-06T06:54:36;18.50;99.90
21487;DHT22;10905;50.822;4.336;2022-07-06T06:57:02;18.50;99.90
21487;DHT22;10905;50.822;4.336;2022-07-06T06:59:27;18.60;99.90
21487;DHT22;10905;50.822;4.336;2022-07-06T07:01:53;18.70;99.90
21487;DHT22;10905;50.822;4.336;2022-07-06T07:04:18;18.90;99.90
21487;DHT22;10905;50.822;4.336;2022-07-06T07:06:44;18.90;99.90
21487;DHT22;10905;50.822;4.336;2022-07-06T07:09:09;18.90;99.90
21487;DHT22;10905;50.822;4.336;2022-07-06T07:11:35;19.20;99.90
21487;DHT22;10905;50.822;4.336;2022-07-06T07:14:00;19.30;99.90
21487;DHT22;10905;50.822;4.336;2022-07-06T07:16:26;19.40;99.90
21487;DHT22;10905;50.822;4.336;2022-07-06T07:18:52;19.40;99.90
21487;DHT22;10905;50.822;4.336;2022-07-06T07:21:18;19.50;99.90
21487;DHT22;10905;50.822;4.336;2022-07-06T07:23:43;19.60;99.90
21487;DHT22;10905;50.822;4.336;2022-07-06T07:26:09;19.60;99.90
21487;DHT22;10905;50.822;4.336;2022-07-06T07:28:34;19.50;99.90
21487;DHT22;10905;50.822;4.336;2022-07-06T07:31:00;19.30;99.90
21487;DHT22;10905;50.822;4.336;2022-07-06T07:33:25;19.30;99.90
21487;DHT22;10905;50.822;4.336;2022-07-06T07:35:51;19.40;99.90
21487;DHT22;10905;50.822;4.336;2022-07-06T07:38:16;19.40;99.90
21487;DHT22;10905;50.822;4.336;2022-07-06T07:40:42;19.50;99.90
21487;DHT22;10905;50.822;4.336;2022-07-06T07:43:07;19.40;99.90
21487;DHT22;10905;50.822;4.336;2022-07-06T07:45:33;19.60;99.90
21487;DHT22;10905;50.822;4.336;2022-07-06T07:47:59;19.60;99.90
21487;DHT22;10905;50.822;4.336;2022-07-06T07:50:24;19.70;99.90
21487;DHT22;10905;50.822;4.336;2022-07-06T07:52:52;19.80;99.90
21487;DHT22;10905;50.822;4.336;2022-07-06T07:55:18;19.60;99.90
21487;DHT22;10905;50.822;4.336;2022-07-06T07:57:43;19.70;99.90
21487;DHT22;10905;50.822;4.336;2022-07-06T08:00:09;19.80;99.90
21487;DHT22;10905;50.822;4.336;2022-07-06T08:02:34;20.10;99.90
21487;DHT22;10905;50.822;4.336;2022-07-06T08:05:00;20.30;99.90
21487;DHT22;10905;50.822;4.336;2022-07-06T08:07:25;20.20;99.90
21487;DHT22;10905;50.822;4.336;2022-07-06T08:09:51;19.90;99.90
21487;DHT22;10905;50.822;4.336;2022-07-06T08:12:16;19.70;99.90
21487;DHT22;10905;50.822;4.336;2022-07-06T08:14:42;19.80;99.90
21487;DHT22;10905;50.822;4.336;2022-07-06T08:17:07;20.00;99.90
21487;DHT22;10905;50.822;4.336;2022-07-06T08:19:33;20.00;99.90
21487;DHT22;10905;50.822;4.336;2022-07-06T08:21:58;20.00;99.90
21487;DHT22;10905;50.822;4.336;2022-07-06T08:24:24;20.10;99.90
21487;DHT22;10905;50.822;4.336;2022-07-06T08:26:49;20.00;99.90
21487;DHT22;10905;50.822;4.336;2022-07-06T08:29:15;20.00;99.90
21487;DHT22;10905;50.822;4.336;2022-07-06T08:31:40;19.90;99.90
21487;DHT22;10905;50.822;4.336;2022-07-06T08:34:06;19.90;99.90
21487;DHT22;10905;50.822;4.336;2022-07-06T08:36:32;20.20;99.90
21487;DHT22;10905;50.822;4.336;2022-07-06T08:38:57;20.40;99.90
21487;DHT22;10905;50.822;4.336;2022-07-06T08:41:23;20.40;99.90
21487;DHT22;10905;50.822;4.336;2022-07-06T08:43:50;20.50;99.90
21487;DHT22;10905;50.822;4.336;2022-07-06T08:46:15;20.70;99.90
21487;DHT22;10905;50.822;4.336;2022-07-06T08:48:41;20.80;99.90
21487;DHT22;10905;50.822;4.336;2022-07-06T08:51:07;21.00;99.90
21487;DHT22;10905;50.822;4.336;2022-07-06T08:53:33;21.00;99.90
21487;DHT22;10905;50.822;4.336;2022-07-06T08:55:59;21.00;99.90
21487;DHT22;10905;50.822;4.336;2022-07-06T08:58:25;20.60;99.90
21487;DHT22;10905;50.822;4.336;2022-07-06T09:00:52;20.70;99.90
21487;DHT22;10905;50.822;4.336;2022-07-06T09:03:18;20.60;99.90
21487;DHT22;10905;50.822;4.336;2022-07-06T09:05:45;20.70;99.90
21487;DHT22;10905;50.822;4.336;2022-07-06T09:08:11;21.00;99.90
21487;DHT22;10905;50.822;4.336;2022-07-06T09:10:37;21.30;99.90
21487;DHT22;10905;50.822;4.336;2022-07-06T09:13:06;21.40;99.90
21487;DHT22;10905;50.822;4.336;2022-07-06T09:15:33;21.60;99.90
21487;DHT22;10905;50.822;4.336;2022-07-06T09:17:59;21.90;99.90
21487;DHT22;10905;50.822;4.336;2022-07-06T09:20:24;21.60;99.90
21487;DHT22;10905;50.822;4.336;2022-07-06T09:22:50;21.70;99.90
21487;DHT22;10905;50.822;4.336;2022-07-06T09:25:16;22.10;99.90
21487;DHT22;10905;50.822;4.336;2022-07-06T09:27:44;21.90;99.90
21487;DHT22;10905;50.822;4.336;2022-07-06T09:30:15;21.70;99.90
21487;DHT22;10905;50.822;4.336;2022-07-06T09:32:45;21.70;99.90
21487;DHT22;10905;50.822;4.336;2022-07-06T09:35:21;21.90;99.90
21487;DHT22;10905;50.822;4.336;2022-07-06T09:37:46;21.90;99.90
21487;DHT22;10905;50.822;4.336;2022-07-06T09:40:17;22.10;99.90
21487;DHT22;10905;50.822;4.336;2022-07-06T09:42:43;22.20;99.90
21487;DHT22;10905;50.822;4.336;2022-07-06T09:45:09;22.10;99.90
21487;DHT22;10905;50.822;4.336;2022-07-06T09:47:34;22.30;99.90
21487;DHT22;10905;50.822;4.336;2022-07-06T09:50:01;22.10;99.90
21487;DHT22;10905;50.822;4.336;2022-07-06T09:52:27;22.30;99.90
21487;DHT22;10905;50.822;4.336;2022-07-06T09:54:52;22.30;99.90
21487;DHT22;10905;50.822;4.336;2022-07-06T09:57:17;22.00;99.90
21487;DHT22;10905;50.822;4.336;2022-07-06T09:59:49;21.90;99.90
21487;DHT22;10905;50.822;4.336;2022-07-06T10:02:15;21.70;99.90
21487;DHT22;10905;50.822;4.336;2022-07-06T10:04:41;21.70;99.90
21487;DHT22;10905;50.822;4.336;2022-07-06T10:07:09;21.60;99.90
21487;DHT22;10905;50.822;4.336;2022-07-06T10:09:34;21.80;99.90
21487;DHT22;10905;50.822;4.336;2022-07-06T10:12:01;22.00;99.90
21487;DHT22;10905;50.822;4.336;2022-07-06T10:14:28;22.10;99.90
21487;DHT22;10905;50.822;4.336;2022-07-06T10:16:54;22.30;99.90
21487;DHT22;10905;50.822;4.336;2022-07-06T10:19:20;22.30;99.90
21487;DHT22;10905;50.822;4.336;2022-07-06T10:21:46;22.60;99.90
21487;DHT22;10905;50.822;4.336;2022-07-06T10:24:12;22.60;99.90
21487;DHT22;10905;50.822;4.336;2022-07-06T10:26:38;22.50;99.90
21487;DHT22;10905;50.822;4.336;2022-07-06T10:29:05;22.70;99.90
21487;DHT22;10905;50.822;4.336;2022-07-06T10:31:31;22.90;99.90
21487;DHT22;10905;50.822;4.336;2022-07-06T10:33:58;22.80;99.90
21487;DHT22;10905;50.822;4.336;2022-07-06T10:36:24;22.80;99.90
21487;DHT22;10905;50.822;4.336;2022-07-06T10:38:50;23.00;99.90
21487;DHT22;10905;50.822;4.336;2022-07-06T10:41:16;23.00;99.90
21487;DHT22;10905;50.822;4.336;2022-07-06T10:43:43;22.70;99.90
21487;DHT22;10905;50.822;4.336;2022-07-06T10:46:09;22.60;99.90
21487;DHT22;10905;50.822;4.336;2022-07-06T10:48:37;22.50;99.90
21487;DHT22;10905;50.822;4.336;2022-07-06T10:51:03;22.50;99.90
21487;DHT22;10905;50.822;4.336;2022-07-06T10:53:33;22.70;99.90
21487;DHT22;10905;50.822;4.336;2022-07-06T10:56:00;22.70;99.90
21487;DHT22;10905;50.822;4.336;2022-07-06T10:58:41;23.00;99.90
21487;DHT22;10905;50.822;4.336;2022-07-06T11:01:07;22.90;99.90
21487;DHT22;10905;50.822;4.336;2022-07-06T11:03:37;22.80;99.90
21487;DHT22;10905;50.822;4.336;2022-07-06T11:06:07;22.70;99.90
21487;DHT22;10905;50.822;4.336;2022-07-06T11:08:47;22.90;99.90
21487;DHT22;10905;50.822;4.336;2022-07-06T11:11:20;22.90;99.90
21487;DHT22;10905;50.822;4.336;2022-07-06T11:16:19;23.50;99.90
21487;DHT22;10905;50.822;4.336;2022-07-06T11:18:49;23.60;99.90
21487;DHT22;10905;50.822;4.336;2022-07-06T11:21:19;23.50;99.90
21487;DHT22;10905;50.822;4.336;2022-07-06T11:23:45;23.50;99.90
21487;DHT22;10905;50.822;4.336;2022-07-06T11:26:11;23.50;99.90
21487;DHT22;10905;50.822;4.336;2022-07-06T11:28:37;23.40;99.90
21487;DHT22;10905;50.822;4.336;2022-07-06T11:31:03;23.40;99.90
21487;DHT22;10905;50.822;4.336;2022-07-06T11:33:29;23.50;99.90
21487;DHT22;10905;50.822;4.336;2022-07-06T11:38:39;23.40;99.90
21487;DHT22;10905;50.822;4.336;2022-07-06T11:41:05;23.50;99.90
21487;DHT22;10905;50.822;4.336;2022-07-06T11:43:30;23.60;99.90
21487;DHT22;10905;50.822;4.336;2022-07-06T11:45:56;23.80;99.90
21487;DHT22;10905;50.822;4.336;2022-07-06T11:48:21;23.60;99.90
21487;DHT22;10905;50.822;4.336;2022-07-06T11:53:46;23.70;99.90
21487;DHT22;10905;50.822;4.336;2022-07-06T11:56:12;23.70;99.90
21487;DHT22;10905;50.822;4.336;2022-07-06T11:58:38;23.80;99.90
21487;DHT22;10905;50.822;4.336;2022-07-06T12:01:04;23.50;99.90
21487;DHT22;10905;50.822;4.336;2022-07-06T12:03:31;23.70;99.90
21487;DHT22;10905;50.822;4.336;2022-07-06T12:05:58;23.60;99.90
21487;DHT22;10905;50.822;4.336;2022-07-06T12:08:24;23.70;99.90
21487;DHT22;10905;50.822;4.336;2022-07-06T12:10:49;23.60;99.90
21487;DHT22;10905;50.822;4.336;2022-07-06T12:13:15;23.90;99.90
21487;DHT22;10905;50.822;4.336;2022-07-06T12:15:40;24.00;99.90
21487;DHT22;10905;50.822;4.336;2022-07-06T12:18:06;24.50;99.90
21487;DHT22;10905;50.822;4.336;2022-07-06T12:20:31;24.50;99.90
21487;DHT22;10905;50.822;4.336;2022-07-06T12:23:06;24.40;99.90
21487;DHT22;10905;50.822;4.336;2022-07-06T12:25:36;24.30;99.90
21487;DHT22;10905;50.822;4.336;2022-07-06T12:28:02;24.00;99.90
21487;DHT22;10905;50.822;4.336;2022-07-06T12:30:27;23.80;99.90
21487;DHT22;10905;50.822;4.336;2022-07-06T12:35:37;23.70;99.90
21487;DHT22;10905;50.822;4.336;2022-07-06T12:38:02;23.60;99.90
21487;DHT22;10905;50.822;4.336;2022-07-06T12:40:28;23.50;99.90
21487;DHT22;10905;50.822;4.336;2022-07-06T12:42:54;23.40;99.90
21487;DHT22;10905;50.822;4.336;2022-07-06T12:45:19;23.60;99.90
21487;DHT22;10905;50.822;4.336;2022-07-06T12:48:00;23.90;99.90
21487;DHT22;10905;50.822;4.336;2022-07-06T12:50:33;24.00;99.90
21487;DHT22;10905;50.822;4.336;2022-07-06T12:52:59;24.30;99.90
21487;DHT22;10905;50.822;4.336;2022-07-06T12:55:26;24.30;99.90
21487;DHT22;10905;50.822;4.336;2022-07-06T12:57:52;24.20;99.90
21487;DHT22;10905;50.822;4.336;2022-07-06T13:00:18;24.10;99.90
21487;DHT22;10905;50.822;4.336;2022-07-06T13:02:47;24.20;99.90
21487;DHT22;10905;50.822;4.336;2022-07-06T13:05:14;24.30;99.90
21487;DHT22;10905;50.822;4.336;2022-07-06T13:07:44;24.50;99.90
21487;DHT22;10905;50.822;4.336;2022-07-06T13:10:10;24.80;99.90
21487;DHT22;10905;50.822;4.336;2022-07-06T13:12:36;24.80;99.90
21487;DHT22;10905;50.822;4.336;2022-07-06T13:15:02;24.80;99.90
21487;DHT22;10905;50.822;4.336;2022-07-06T13:17:28;24.60;99.90
21487;DHT22;10905;50.822;4.336;2022-07-06T13:19:53;24.30;99.90
21487;DHT22;10905;50.822;4.336;2022-07-06T13:22:19;24.30;99.90
21487;DHT22;10905;50.822;4.336;2022-07-06T13:24:44;24.50;99.90
21487;DHT22;10905;50.822;4.336;2022-07-06T13:27:10;24.80;99.90
21487;DHT22;10905;50.822;4.336;2022-07-06T13:29:36;24.90;99.90
21487;DHT22;10905;50.822;4.336;2022-07-06T13:32:02;24.70;99.90
21487;DHT22;10905;50.822;4.336;2022-07-06T13:34:28;24.50;99.90
21487;DHT22;10905;50.822;4.336;2022-07-06T13:36:53;24.40;99.90
21487;DHT22;10905;50.822;4.336;2022-07-06T13:39:19;24.40;99.90
21487;DHT22;10905;50.822;4.336;2022-07-06T13:41:45;24.40;99.90
21487;DHT22;10905;50.822;4.336;2022-07-06T13:44:10;24.50;99.90
21487;DHT22;10905;50.822;4.336;2022-07-06T13:46:37;24.50;99.90
21487;DHT22;10905;50.822;4.336;2022-07-06T13:49:04;24.40;99.90
21487;DHT22;10905;50.822;4.336;2022-07-06T13:51:30;24.50;99.90
21487;DHT22;10905;50.822;4.336;2022-07-06T13:53:58;24.50;99.90
21487;DHT22;10905;50.822;4.336;2022-07-06T13:56:24;24.40;99.90
21487;DHT22;10905;50.822;4.336;2022-07-06T13:58:50;24.70;99.90
21487;DHT22;10905;50.822;4.336;2022-07-06T14:01:15;24.90;99.90
21487;DHT22;10905;50.822;4.336;2022-07-06T14:03:41;24.90;99.90
21487;DHT22;10905;50.822;4.336;2022-07-06T14:06:06;24.80;99.80
21487;DHT22;10905;50.822;4.336;2022-07-06T14:08:33;24.80;99.90
21487;DHT22;10905;50.822;4.336;2022-07-06T14:10:59;25.10;99.40
21487;DHT22;10905;50.822;4.336;2022-07-06T14:13:24;25.50;99.30
21487;DHT22;10905;50.822;4.336;2022-07-06T14:15:50;25.70;99.90
21487;DHT22;10905;50.822;4.336;2022-07-06T14:18:16;25.60;99.60
21487;DHT22;10905;50.822;4.336;2022-07-06T14:20:46;25.60;97.80
21487;DHT22;10905;50.822;4.336;2022-07-06T14:23:12;25.60;99.00
21487;DHT22;10905;50.822;4.336;2022-07-06T14:25:38;25.90;98.00
21487;DHT22;10905;50.822;4.336;2022-07-06T14:28:04;26.00;98.20
21487;DHT22;10905;50.822;4.336;2022-07-06T14:30:29;25.90;98.60
21487;DHT22;10905;50.822;4.336;2022-07-06T14:32:55;25.40;98.60
21487;DHT22;10905;50.822;4.336;2022-07-06T14:35:21;25.50;99.10
21487;DHT22;10905;50.822;4.336;2022-07-06T14:37:47;25.60;99.60
21487;DHT22;10905;50.822;4.336;2022-07-06T14:40:12;25.90;97.50
21487;DHT22;10905;50.822;4.336;2022-07-06T14:42:38;25.80;98.50
21487;DHT22;10905;50.822;4.336;2022-07-06T14:45:04;25.90;97.90
21487;DHT22;10905;50.822;4.336;2022-07-06T14:47:29;25.90;99.80
21487;DHT22;10905;50.822;4.336;2022-07-06T14:49:55;25.90;99.90
21487;DHT22;10905;50.822;4.336;2022-07-06T14:52:20;26.00;98.70
21487;DHT22;10905;50.822;4.336;2022-07-06T14:54:46;25.70;98.00
21487;DHT22;10905;50.822;4.336;2022-07-06T14:57:11;25.60;98.90
21487;DHT22;10905;50.822;4.336;2022-07-06T14:59:37;25.80;98.70
21487;DHT22;10905;50.822;4.336;2022-07-06T15:02:02;25.80;99.30
21487;DHT22;10905;50.822;4.336;2022-07-06T15:04:28;25.70;99.60
21487;DHT22;10905;50.822;4.336;2022-07-06T15:06:54;26.00;99.30
21487;DHT22;10905;50.822;4.336;2022-07-06T15:09:19;26.20;97.70
21487;DHT22;10905;50.822;4.336;2022-07-06T15:11:45;26.30;98.50
21487;DHT22;10905;50.822;4.336;2022-07-06T15:14:11;26.40;98.80
21487;DHT22;10905;50.822;4.336;2022-07-06T15:16:37;26.30;98.60
21487;DHT22;10905;50.822;4.336;2022-07-06T15:19:03;26.20;98.70
21487;DHT22;10905;50.822;4.336;2022-07-06T15:21:28;26.00;98.00
21487;DHT22;10905;50.822;4.336;2022-07-06T15:23:54;25.90;98.50
21487;DHT22;10905;50.822;4.336;2022-07-06T15:26:20;25.70;99.10
21487;DHT22;10905;50.822;4.336;2022-07-06T15:28:46;25.80;98.50
21487;DHT22;10905;50.822;4.336;2022-07-06T15:31:11;25.70;99.30
21487;DHT22;10905;50.822;4.336;2022-07-06T15:33:37;25.70;98.30
21487;DHT22;10905;50.822;4.336;2022-07-06T15:36:03;25.30;98.60